Time;durP1;ratioP1;P1;durP2;ratioP2;P2;SDS_P1;SDS_P2;PMS_P1;PMS_P2;Temp;Humidity;BMP_temperature;BMP_pressure;BME280_temperature;BME280_humidity;BME280_pressure;Samples;Min_cycle;Max_cycle;Signal;HPM_P1;HPM_P2
2023/05/29 00:00:20;;;;;;;16.30;2.28;;;12.00;99.90;;;;;;5111645;28;20066;-84
2023/05/29 00:02:47;;;;;;;11.13;2.80;;;11.90;99.90;;;;;;5110714;28;20101;-84
2023/05/29 00:05:13;;;;;;;14.43;2.22;;;11.80;99.90;;;;;;5110485;28;20054;-84
2023/05/29 00:07:40;;;;;;;16.88;2.53;;;11.80;99.90;;;;;;5112011;28;20480;-84
2023/05/29 00:10:07;;;;;;;13.70;2.97;;;11.80;99.90;;;;;;5110083;28;20051;-84
2023/05/29 00:12:33;;;;;;;17.98;3.50;;;11.80;99.90;;;;;;5110608;28;20050;-84
2023/05/29 00:14:59;;;;;;;12.85;3.13;;;11.70;99.90;;;;;;5110548;28;20043;-84
2023/05/29 00:17:25;;;;;;;16.15;2.42;;;11.70;99.90;;;;;;5110838;28;20081;-84
2023/05/29 00:19:51;;;;;;;11.70;2.30;;;11.70;99.90;;;;;;5110226;28;20307;-84
2023/05/29 00:22:16;;;;;;;14.70;2.22;;;11.70;99.90;;;;;;5111999;28;20040;-84
2023/05/29 00:24:42;;;;;;;15.43;4.82;;;11.60;99.90;;;;;;5110958;28;20035;-84
2023/05/29 00:27:08;;;;;;;12.65;2.78;;;11.70;99.90;;;;;;5110560;28;20083;-84
2023/05/29 00:29:35;;;;;;;16.73;2.47;;;11.70;99.90;;;;;;5109691;28;20492;-84
2023/05/29 00:32:01;;;;;;;16.70;2.97;;;11.60;99.90;;;;;;5110348;28;20514;-84
2023/05/29 00:34:27;;;;;;;13.65;2.60;;;11.50;99.90;;;;;;5110476;28;20071;-84
2023/05/29 00:36:55;;;;;;;14.77;2.72;;;11.50;99.90;;;;;;5111694;28;20082;-84
2023/05/29 00:39:21;;;;;;;12.32;2.40;;;11.50;99.90;;;;;;5110516;28;20100;-84
2023/05/29 00:41:50;;;;;;;12.38;2.13;;;11.50;99.90;;;;;;5110111;28;20055;-84
2023/05/29 00:44:18;;;;;;;13.15;2.60;;;11.40;99.90;;;;;;5110256;28;20050;-84
2023/05/29 00:46:44;;;;;;;14.65;2.33;;;11.40;99.90;;;;;;5110406;28;20051;-84
2023/05/29 00:49:11;;;;;;;14.80;2.63;;;11.40;99.90;;;;;;5110292;28;20416;-84
2023/05/29 00:51:37;;;;;;;14.00;2.90;;;11.40;99.90;;;;;;5110260;28;20047;-84
2023/05/29 00:54:06;;;;;;;12.68;2.08;;;11.40;99.90;;;;;;5110206;28;20043;-84
2023/05/29 00:56:32;;;;;;;14.88;3.35;;;11.30;99.90;;;;;;5110255;28;20047;-84
2023/05/29 00:58:58;;;;;;;13.80;2.08;;;11.30;99.90;;;;;;5113961;28;20043;-84
2023/05/29 01:01:24;;;;;;;13.13;2.83;;;11.30;99.90;;;;;;5113868;28;20084;-84
2023/05/29 01:03:53;;;;;;;15.05;2.58;;;11.30;99.90;;;;;;5113649;28;20524;-84
2023/05/29 01:06:20;;;;;;;15.18;2.88;;;11.30;99.90;;;;;;5115032;28;20378;-84
2023/05/29 01:08:46;;;;;;;15.35;2.92;;;11.20;99.90;;;;;;5113542;28;20054;-84
2023/05/29 01:11:18;;;;;;;13.18;2.20;;;11.20;99.90;;;;;;5113232;28;20039;-84
2023/05/29 01:13:45;;;;;;;14.38;2.20;;;11.20;99.90;;;;;;5113865;28;20445;-84
2023/05/29 01:16:34;;;;;;;15.10;2.90;;;11.10;99.90;;;;;;5113467;28;20114;-84
2023/05/29 01:19:17;;;;;;;16.65;2.30;;;11.10;99.90;;;;;;5113449;28;20035;-84
2023/05/29 01:22:20;;;;;;;10.75;2.35;;;11.10;99.90;;;;;;5113387;28;20100;-84
2023/05/29 01:24:52;;;;;;;17.60;2.22;;;11.10;99.90;;;;;;5088494;28;20060;-84
2023/05/29 01:27:18;;;;;;;16.15;4.32;;;11.10;99.90;;;;;;5113442;28;20054;-84
2023/05/29 01:29:47;;;;;;;10.45;2.28;;;11.10;99.90;;;;;;5112493;28;20071;-84
2023/05/29 01:32:12;;;;;;;14.88;2.72;;;11.10;99.90;;;;;;5096263;28;20050;-84
2023/05/29 01:34:38;;;;;;;14.73;2.25;;;11.00;99.90;;;;;;5114492;28;20118;-84
2023/05/29 01:37:04;;;;;;;13.05;2.38;;;11.00;99.90;;;;;;5113293;28;20518;-84
2023/05/29 01:39:31;;;;;;;18.70;3.47;;;11.00;99.90;;;;;;5112706;28;20039;-84
2023/05/29 01:41:59;;;;;;;15.05;3.20;;;10.90;99.90;;;;;;5112938;28;20123;-84
2023/05/29 01:44:25;;;;;;;14.70;2.75;;;10.90;99.90;;;;;;5113185;28;20112;-84
2023/05/29 01:46:52;;;;;;;11.90;1.98;;;10.90;99.90;;;;;;5112922;28;20405;-84
2023/05/29 01:49:18;;;;;;;17.15;2.60;;;10.90;99.90;;;;;;5112691;28;20568;-84
2023/05/29 01:51:44;;;;;;;9.38;1.77;;;10.80;99.90;;;;;;5112547;28;20119;-84
2023/05/29 01:54:10;;;;;;;14.82;1.92;;;10.80;99.90;;;;;;5112836;28;20039;-84
2023/05/29 01:56:36;;;;;;;14.05;2.83;;;10.80;99.90;;;;;;5114054;28;20450;-84
2023/05/29 01:59:03;;;;;;;9.85;1.98;;;10.80;99.90;;;;;;5112466;28;20054;-84
2023/05/29 02:01:29;;;;;;;6.93;2.00;;;10.70;99.90;;;;;;5112389;28;20087;-84
2023/05/29 02:03:54;;;;;;;14.85;2.28;;;10.70;99.90;;;;;;5113907;28;20373;-84
2023/05/29 02:06:20;;;;;;;16.27;2.83;;;10.70;99.90;;;;;;5112622;28;20539;-84
2023/05/29 02:08:46;;;;;;;10.00;1.95;;;10.70;99.90;;;;;;5112283;28;20098;-84
2023/05/29 02:11:12;;;;;;;11.43;2.10;;;10.70;99.90;;;;;;5111719;28;20139;-84
2023/05/29 02:13:38;;;;;;;14.63;2.45;;;10.60;99.90;;;;;;5112465;28;20315;-84
2023/05/29 02:16:04;;;;;;;11.60;2.42;;;10.60;99.90;;;;;;5112715;28;20043;-84
2023/05/29 02:18:31;;;;;;;12.73;2.92;;;10.50;99.90;;;;;;5095257;28;20489;-84
2023/05/29 02:20:56;;;;;;;10.50;1.70;;;10.50;99.90;;;;;;5112261;28;20095;-84
2023/05/29 02:23:22;;;;;;;22.40;2.60;;;10.50;99.90;;;;;;5112487;28;20118;-84
2023/05/29 02:25:47;;;;;;;10.95;2.55;;;10.50;99.90;;;;;;5112156;28;20042;-84
2023/05/29 02:28:13;;;;;;;15.73;3.17;;;10.50;99.90;;;;;;5113310;28;20039;-84
2023/05/29 02:30:39;;;;;;;10.57;1.90;;;10.50;99.90;;;;;;5111563;28;20044;-84
2023/05/29 02:33:06;;;;;;;15.00;3.05;;;10.40;99.90;;;;;;5112096;28;20127;-84
2023/05/29 02:35:31;;;;;;;14.65;2.58;;;10.40;99.90;;;;;;5112044;28;20051;-84
2023/05/29 02:37:57;;;;;;;10.85;2.67;;;10.40;99.90;;;;;;5111836;28;20036;-84
2023/05/29 02:40:23;;;;;;;9.23;1.75;;;10.40;99.90;;;;;;5111557;28;20043;-84
2023/05/29 02:42:50;;;;;;;7.13;1.58;;;10.30;99.90;;;;;;5111938;28;20040;-84
2023/05/29 02:45:16;;;;;;;11.73;2.25;;;10.30;99.90;;;;;;5111877;28;20088;-84
2023/05/29 02:47:41;;;;;;;13.77;2.30;;;10.20;99.90;;;;;;5111755;28;20047;-84
2023/05/29 02:50:08;;;;;;;17.13;2.55;;;10.20;99.90;;;;;;5112579;28;20449;-84
2023/05/29 02:52:34;;;;;;;22.13;3.50;;;10.20;99.90;;;;;;5111709;28;20063;-84
2023/05/29 02:55:00;;;;;;;12.07;2.50;;;10.20;99.90;;;;;;5111626;28;20044;-84
2023/05/29 02:57:26;;;;;;;12.15;1.92;;;10.20;99.90;;;;;;5111614;28;20138;-84
2023/05/29 02:59:52;;;;;;;18.27;2.50;;;10.20;99.90;;;;;;5094308;28;20039;-84
2023/05/29 03:02:18;;;;;;;12.07;2.65;;;10.10;99.90;;;;;;5112793;28;20043;-84
2023/05/29 03:04:44;;;;;;;13.70;2.22;;;10.10;99.90;;;;;;5111519;28;20382;-83
2023/05/29 03:07:10;;;;;;;14.57;3.35;;;10.10;99.90;;;;;;5111169;28;20553;-83
2023/05/29 03:09:36;;;;;;;16.40;2.55;;;10.10;99.90;;;;;;5110965;28;20043;-84
2023/05/29 03:12:02;;;;;;;14.27;2.30;;;10.10;99.90;;;;;;5111380;28;20394;-84
2023/05/29 03:14:27;;;;;;;13.13;2.33;;;10.10;99.90;;;;;;5111315;28;20042;-84
2023/05/29 03:16:54;;;;;;;15.90;2.40;;;10.10;99.90;;;;;;5111209;28;20044;-83
2023/05/29 03:19:20;;;;;;;12.65;2.60;;;10.00;99.90;;;;;;5111087;28;20058;-84
2023/05/29 03:21:46;;;;;;;13.60;2.38;;;10.00;99.90;;;;;;5109923;28;20044;-84
2023/05/29 03:24:14;;;;;;;8.13;1.90;;;10.00;99.90;;;;;;5111186;28;20043;-83
2023/05/29 03:26:40;;;;;;;12.35;1.88;;;10.00;99.90;;;;;;5111044;28;20630;-84
2023/05/29 03:29:06;;;;;;;9.77;1.73;;;9.90;99.90;;;;;;5111005;28;20048;-83
2023/05/29 03:31:32;;;;;;;11.80;2.35;;;9.90;99.90;;;;;;5110795;28;20042;-83
2023/05/29 03:33:58;;;;;;;14.95;2.15;;;9.90;99.90;;;;;;5110940;28;20553;-84
2023/05/29 03:36:24;;;;;;;16.25;2.40;;;9.90;99.90;;;;;;5110930;28;20032;-84
2023/05/29 03:38:50;;;;;;;12.02;2.85;;;9.90;99.90;;;;;;5110942;28;20044;-84
2023/05/29 03:41:15;;;;;;;14.57;1.95;;;9.90;99.90;;;;;;5110661;28;20074;-84
2023/05/29 03:43:41;;;;;;;15.23;2.55;;;9.90;99.90;;;;;;5110961;28;20075;-84
2023/05/29 03:46:07;;;;;;;17.00;2.33;;;9.90;99.90;;;;;;5111175;28;20039;-83
2023/05/29 03:48:32;;;;;;;13.02;2.03;;;9.80;99.90;;;;;;5110619;28;20429;-84
2023/05/29 03:50:58;;;;;;;12.60;2.58;;;9.80;99.90;;;;;;5110549;28;20035;-84
2023/05/29 03:53:24;;;;;;;12.88;2.55;;;9.80;99.90;;;;;;5110840;28;20161;-84
2023/05/29 03:55:49;;;;;;;14.80;2.33;;;9.80;99.90;;;;;;5111110;28;20172;-84
2023/05/29 03:58:15;;;;;;;16.58;2.78;;;9.80;99.90;;;;;;5111050;28;20398;-84
2023/05/29 04:00:41;;;;;;;14.05;2.20;;;9.80;99.90;;;;;;5110799;28;20207;-84
2023/05/29 04:03:07;;;;;;;15.02;2.20;;;9.80;99.90;;;;;;5110527;28;20082;-84
2023/05/29 04:05:33;;;;;;;12.98;2.40;;;9.80;99.90;;;;;;5110709;28;20085;-84
2023/05/29 04:07:59;;;;;;;13.65;2.92;;;9.80;99.90;;;;;;5110736;28;20044;-84
2023/05/29 04:10:24;;;;;;;14.43;2.25;;;9.80;99.90;;;;;;5110136;28;20101;-84
2023/05/29 04:12:51;;;;;;;13.13;2.20;;;9.80;99.90;;;;;;5110701;28;20036;-83
2023/05/29 04:15:16;;;;;;;10.43;2.22;;;9.80;99.90;;;;;;5111960;28;20046;-84
2023/05/29 04:17:42;;;;;;;13.88;2.45;;;9.80;99.90;;;;;;5111666;28;20464;-83
2023/05/29 04:20:08;;;;;;;14.80;2.70;;;9.80;99.90;;;;;;5110280;28;20032;-84
2023/05/29 04:22:37;;;;;;;12.98;2.72;;;9.80;99.90;;;;;;5110599;28;20044;-84
2023/05/29 04:25:03;;;;;;;15.52;2.80;;;9.90;99.90;;;;;;5110541;28;20043;-84
2023/05/29 04:27:31;;;;;;;12.20;2.03;;;9.90;99.90;;;;;;5110545;28;20044;-83
2023/05/29 04:29:57;;;;;;;12.15;1.75;;;9.90;99.90;;;;;;5109401;28;20054;-84
2023/05/29 04:32:23;;;;;;;11.48;1.80;;;9.90;99.90;;;;;;5110772;28;20055;-84
2023/05/29 04:34:49;;;;;;;13.32;2.38;;;9.90;99.90;;;;;;5097546;28;20035;-84
2023/05/29 04:37:15;;;;;;;9.25;2.22;;;10.00;99.90;;;;;;5115656;28;20075;-84
2023/05/29 04:39:40;;;;;;;14.88;2.58;;;10.00;99.90;;;;;;5115192;28;20035;-84
2023/05/29 04:42:06;;;;;;;13.20;1.70;;;10.10;99.90;;;;;;5114266;28;20706;-84
2023/05/29 04:44:32;;;;;;;14.25;2.13;;;10.10;99.90;;;;;;5114198;28;20043;-83
2023/05/29 04:46:58;;;;;;;11.13;2.20;;;10.10;99.90;;;;;;5114246;28;20122;-83
2023/05/29 04:49:24;;;;;;;14.48;1.92;;;10.20;99.90;;;;;;5114050;28;20118;-83
2023/05/29 04:51:52;;;;;;;11.75;2.47;;;10.20;99.90;;;;;;5113771;28;20043;-84
2023/05/29 04:54:19;;;;;;;13.40;2.50;;;10.20;99.90;;;;;;5113994;28;20397;-84
2023/05/29 04:56:45;;;;;;;10.23;2.03;;;10.30;99.90;;;;;;5113832;28;20421;-84
2023/05/29 04:59:12;;;;;;;13.15;2.85;;;10.30;99.90;;;;;;5096880;28;20044;-84
2023/05/29 05:01:37;;;;;;;13.73;2.08;;;10.40;99.90;;;;;;5113545;28;20079;-84
2023/05/29 05:04:03;;;;;;;14.70;2.75;;;10.40;99.90;;;;;;5114067;28;20476;-84
2023/05/29 05:06:29;;;;;;;13.52;2.22;;;10.50;99.90;;;;;;5113815;28;20039;-84
2023/05/29 05:08:55;;;;;;;14.05;1.92;;;10.50;99.90;;;;;;5113647;28;20179;-84
2023/05/29 05:11:22;;;;;;;14.32;2.20;;;10.60;99.90;;;;;;5113241;28;20042;-84
2023/05/29 05:13:49;;;;;;;11.00;2.60;;;10.70;99.90;;;;;;5113415;28;20035;-84
2023/05/29 05:16:16;;;;;;;12.10;2.20;;;10.70;99.90;;;;;;5113288;28;20496;-84
2023/05/29 05:18:43;;;;;;;16.13;2.55;;;10.80;99.90;;;;;;5112565;28;20040;-84
2023/05/29 05:21:10;;;;;;;13.80;2.47;;;10.80;99.90;;;;;;5108736;28;20084;-84
2023/05/29 05:23:36;;;;;;;12.95;2.47;;;10.90;99.90;;;;;;5109623;28;20553;-84
2023/05/29 05:26:02;;;;;;;10.15;2.35;;;11.00;99.90;;;;;;5095497;28;20259;-84
2023/05/29 05:28:27;;;;;;;10.18;2.47;;;11.10;99.90;;;;;;5096378;28;20515;-83
2023/05/29 05:30:53;;;;;;;14.30;2.70;;;11.10;99.90;;;;;;5112883;28;20493;-84
2023/05/29 05:33:18;;;;;;;12.82;2.00;;;11.20;99.90;;;;;;5114506;28;20118;-84
2023/05/29 05:35:44;;;;;;;11.00;2.38;;;11.20;99.90;;;;;;5113459;28;20493;-84
2023/05/29 05:38:10;;;;;;;13.23;2.25;;;11.30;99.90;;;;;;5112993;28;20505;-84
2023/05/29 05:40:35;;;;;;;9.15;1.88;;;11.40;99.90;;;;;;5112846;28;20047;-84
2023/05/29 05:43:01;;;;;;;9.65;2.13;;;11.40;99.90;;;;;;5113097;28;20059;-84
2023/05/29 05:45:29;;;;;;;11.32;2.13;;;11.50;99.90;;;;;;5113137;28;20036;-84
2023/05/29 05:47:56;;;;;;;13.27;1.90;;;11.50;99.90;;;;;;5112924;28;20045;-84
2023/05/29 05:50:21;;;;;;;12.80;2.53;;;11.60;99.90;;;;;;5112415;28;20085;-84
2023/05/29 05:52:47;;;;;;;13.13;2.45;;;11.70;99.90;;;;;;5112822;28;20043;-84
2023/05/29 05:55:13;;;;;;;12.60;2.38;;;11.70;99.90;;;;;;5112851;28;20045;-84
2023/05/29 05:57:38;;;;;;;11.02;2.22;;;11.80;99.90;;;;;;5096126;28;20043;-84
2023/05/29 06:00:11;;;;;;;12.38;1.92;;;11.90;99.90;;;;;;5112445;28;20130;-84
2023/05/29 06:02:37;;;;;;;16.13;2.80;;;11.90;99.90;;;;;;5112844;28;20058;-84
2023/05/29 06:05:03;;;;;;;17.02;2.83;;;12.00;99.90;;;;;;5095556;28;20504;-84
2023/05/29 06:07:30;;;;;;;11.82;3.53;;;12.00;99.90;;;;;;5112799;28;20561;-84
2023/05/29 06:09:55;;;;;;;14.40;2.85;;;12.10;99.90;;;;;;5112204;28;20048;-84
2023/05/29 06:12:21;;;;;;;9.60;2.15;;;12.20;99.90;;;;;;5112389;28;20079;-84
2023/05/29 06:14:46;;;;;;;15.15;2.33;;;12.20;99.90;;;;;;5113757;28;20075;-84
2023/05/29 06:17:13;;;;;;;9.52;1.85;;;12.30;99.90;;;;;;5112725;28;20036;-84
2023/05/29 06:19:38;;;;;;;11.10;2.25;;;12.40;99.90;;;;;;5111744;28;20047;-84
2023/05/29 06:22:05;;;;;;;13.05;2.10;;;12.40;99.90;;;;;;5113624;28;20047;-84
2023/05/29 06:24:30;;;;;;;13.23;2.50;;;12.50;99.90;;;;;;5112246;28;20046;-84
2023/05/29 06:26:56;;;;;;;15.68;2.63;;;12.60;99.90;;;;;;5112468;28;20118;-84
2023/05/29 06:29:21;;;;;;;12.88;2.72;;;12.60;99.90;;;;;;5111892;28;20519;-84
2023/05/29 06:31:47;;;;;;;14.73;3.33;;;12.70;99.90;;;;;;5111600;28;20071;-84
2023/05/29 06:34:13;;;;;;;13.55;2.15;;;12.80;99.50;;;;;;5109224;27;20049;-84
2023/05/29 06:36:40;;;;;;;13.60;2.53;;;12.80;98.70;;;;;;5103885;27;20092;-84
2023/05/29 06:39:05;;;;;;;15.65;2.53;;;12.90;98.10;;;;;;5109695;27;20123;-84
2023/05/29 06:41:31;;;;;;;16.00;2.53;;;12.90;97.90;;;;;;5113867;27;20122;-84
2023/05/29 06:43:56;;;;;;;14.80;3.80;;;13.00;97.50;;;;;;5114892;27;20088;-84
2023/05/29 06:46:22;;;;;;;14.90;4.18;;;13.10;96.50;;;;;;5115030;27;20411;-84
2023/05/29 06:48:48;;;;;;;11.20;2.33;;;13.20;95.20;;;;;;5114937;27;20103;-84
2023/05/29 06:51:13;;;;;;;9.95;2.40;;;13.20;95.10;;;;;;5133193;27;20034;-84
2023/05/29 06:53:39;;;;;;;12.23;2.42;;;13.30;95.40;;;;;;5133516;27;20088;-84
2023/05/29 06:56:05;;;;;;;23.70;5.03;;;13.30;95.10;;;;;;5133167;27;20042;-84
2023/05/29 06:58:31;;;;;;;14.57;3.08;;;13.30;93.80;;;;;;5114907;27;20039;-84
2023/05/29 07:00:57;;;;;;;13.95;3.33;;;13.40;93.90;;;;;;5132959;27;20042;-84
2023/05/29 07:03:27;;;;;;;24.00;2.97;;;13.50;94.30;;;;;;5114878;27;20083;-84
2023/05/29 07:05:53;;;;;;;26.35;5.03;;;13.50;94.20;;;;;;5115145;27;20079;-84
2023/05/29 07:08:19;;;;;;;15.07;2.28;;;13.70;93.70;;;;;;5115101;27;20082;-84
2023/05/29 07:10:44;;;;;;;15.77;2.60;;;13.80;93.50;;;;;;5132785;27;20043;-84
2023/05/29 07:13:10;;;;;;;15.80;4.63;;;13.80;93.60;;;;;;5114732;27;20051;-84
2023/05/29 07:15:37;;;;;;;19.77;5.07;;;13.90;92.70;;;;;;5114678;27;20043;-84
2023/05/29 07:18:03;;;;;;;16.80;3.17;;;14.10;92.20;;;;;;5114541;27;20436;-84
2023/05/29 07:20:28;;;;;;;16.48;3.88;;;14.20;92.30;;;;;;5114416;27;20047;-84
2023/05/29 07:22:54;;;;;;;14.38;3.13;;;14.30;91.80;;;;;;5133054;27;20050;-84
2023/05/29 07:25:20;;;;;;;13.75;3.90;;;14.30;91.20;;;;;;5114546;27;20489;-84
2023/05/29 07:27:45;;;;;;;15.32;4.70;;;14.30;90.50;;;;;;5114362;28;20070;-84
2023/05/29 07:30:12;;;;;;;17.05;4.72;;;14.30;88.80;;;;;;5113907;27;20047;-84
2023/05/29 07:32:37;;;;;;;15.18;2.70;;;14.40;87.10;;;;;;5132878;27;20207;-84
2023/05/29 07:35:03;;;;;;;17.10;4.32;;;14.40;87.50;;;;;;5132955;27;20567;-84
2023/05/29 07:37:30;;;;;;;16.42;4.90;;;14.40;86.00;;;;;;5114439;27;20381;-84
2023/05/29 07:39:55;;;;;;;12.85;2.88;;;14.40;84.30;;;;;;5113820;27;20450;-84
2023/05/29 07:42:21;;;;;;;17.42;4.80;;;14.40;84.60;;;;;;5114382;27;20334;-84
2023/05/29 07:44:47;;;;;;;17.88;5.50;;;14.40;84.60;;;;;;5114370;28;20047;-84
2023/05/29 07:47:13;;;;;;;10.18;2.30;;;14.50;83.70;;;;;;5132662;28;20054;-84
2023/05/29 07:49:39;;;;;;;15.02;2.83;;;14.50;83.80;;;;;;5113790;28;20040;-84
2023/05/29 07:52:05;;;;;;;15.30;3.55;;;14.40;83.80;;;;;;5114358;28;20051;-84
2023/05/29 07:54:32;;;;;;;12.63;2.90;;;14.40;83.50;;;;;;5114215;28;20507;-84
2023/05/29 07:57:09;;;;;;;13.07;3.28;;;14.50;83.70;;;;;;5114205;28;20046;-84
2023/05/29 07:59:41;;;;;;;13.43;4.10;;;14.60;83.70;;;;;;5114126;28;20426;-84
2023/05/29 08:02:07;;;;;;;15.75;2.60;;;14.70;83.00;;;;;;5114249;28;20043;-84
2023/05/29 08:04:33;;;;;;;16.88;4.45;;;14.80;83.80;;;;;;5114095;28;20054;-84
2023/05/29 08:07:05;;;;;;;18.15;4.80;;;14.90;83.50;;;;;;5113901;27;20047;-84
2023/05/29 08:09:32;;;;;;;18.25;4.80;;;15.00;82.20;;;;;;5117612;27;20057;-84
2023/05/29 08:11:59;;;;;;;16.55;4.45;;;15.10;81.90;;;;;;5118229;27;20042;-84
2023/05/29 08:14:25;;;;;;;15.13;4.82;;;15.20;81.50;;;;;;5118353;27;20135;-84
2023/05/29 08:16:51;;;;;;;15.85;4.40;;;15.30;80.30;;;;;;5136561;27;20128;-84
2023/05/29 08:19:17;;;;;;;12.02;2.45;;;15.40;79.60;;;;;;5117793;27;20043;-84
2023/05/29 08:21:42;;;;;;;11.82;2.95;;;15.40;79.90;;;;;;5117881;27;20077;-84
2023/05/29 08:24:08;;;;;;;13.45;3.08;;;15.40;80.40;;;;;;5100853;27;20047;-84
2023/05/29 08:26:34;;;;;;;14.50;4.25;;;15.40;80.60;;;;;;5118002;27;20122;-84
2023/05/29 08:29:00;;;;;;;16.38;4.53;;;15.50;78.70;;;;;;5117820;27;20043;-84
2023/05/29 08:31:26;;;;;;;13.10;2.65;;;15.60;76.90;;;;;;5101130;28;20450;-84
2023/05/29 08:33:53;;;;;;;9.70;3.05;;;15.60;77.10;;;;;;5118865;27;20048;-84
2023/05/29 08:36:22;;;;;;;10.90;3.03;;;15.60;77.50;;;;;;5107511;27;20042;-84
2023/05/29 08:38:48;;;;;;;17.02;4.55;;;15.70;77.50;;;;;;5108016;27;20109;-84
2023/05/29 08:41:23;;;;;;;13.88;2.85;;;15.80;76.00;;;;;;5100318;27;20066;-84
2023/05/29 08:43:50;;;;;;;17.88;5.10;;;15.80;75.70;;;;;;5114958;27;20108;-84
2023/05/29 08:46:19;;;;;;;17.25;4.72;;;15.90;75.90;;;;;;5135995;27;20058;-84
2023/05/29 08:48:49;;;;;;;15.32;4.40;;;16.00;74.80;;;;;;5117312;27;20047;-84
2023/05/29 08:51:19;;;;;;;15.43;2.83;;;16.10;74.40;;;;;;5135540;27;20043;-84
2023/05/29 08:53:46;;;;;;;17.52;4.75;;;16.10;75.20;;;;;;5117429;27;20047;-84
2023/05/29 08:56:11;;;;;;;14.18;3.05;;;16.20;75.20;;;;;;5135784;27;20467;-84
2023/05/29 08:58:37;;;;;;;13.35;4.07;;;16.30;75.50;;;;;;5117374;27;20548;-84
2023/05/29 09:01:04;;;;;;;13.38;3.75;;;16.40;74.80;;;;;;5116949;27;20569;-84
2023/05/29 09:03:29;;;;;;;14.50;4.28;;;16.50;73.70;;;;;;5117302;27;20039;-85
2023/05/29 09:06:03;;;;;;;15.70;4.35;;;16.60;73.60;;;;;;5117083;27;20487;-84
2023/05/29 09:08:30;;;;;;;17.23;4.65;;;16.70;73.00;;;;;;5116829;27;20078;-84
2023/05/29 09:10:56;;;;;;;15.50;4.13;;;16.80;73.20;;;;;;5115721;27;20520;-84
2023/05/29 09:13:22;;;;;;;15.65;4.55;;;16.90;73.10;;;;;;5099613;28;20065;-84
2023/05/29 09:15:48;;;;;;;14.45;3.70;;;16.90;72.30;;;;;;5114945;28;20027;-84
2023/05/29 09:18:16;;;;;;;15.82;4.60;;;17.00;72.40;;;;;;5096274;28;20507;-85
2023/05/29 09:20:42;;;;;;;15.07;4.15;;;17.10;72.30;;;;;;5096347;28;20048;-84
2023/05/29 09:23:08;;;;;;;17.38;4.55;;;17.20;72.30;;;;;;5096664;28;20043;-85
2023/05/29 09:25:40;;;;;;;17.10;4.97;;;17.30;72.70;;;;;;5096495;28;20043;-84
2023/05/29 09:28:07;;;;;;;17.02;4.32;;;17.30;71.90;;;;;;5096168;28;20040;-84
2023/05/29 09:30:45;;;;;;;16.65;4.53;;;17.40;71.00;;;;;;5078956;28;20048;-84
2023/05/29 09:33:12;;;;;;;13.65;4.57;;;17.40;70.30;;;;;;5096317;28;20043;-84
2023/05/29 09:35:42;;;;;;;15.18;3.60;;;17.40;70.20;;;;;;5096297;28;20050;-84
2023/05/29 09:38:09;;;;;;;20.35;4.88;;;17.40;70.00;;;;;;5114322;28;20051;-84
2023/05/29 09:40:36;;;;;;;18.23;3.70;;;17.40;70.00;;;;;;5114041;28;20035;-84
2023/05/29 09:43:14;;;;;;;18.90;5.35;;;17.40;70.80;;;;;;5108671;27;20043;-84
2023/05/29 09:45:47;;;;;;;16.85;4.38;;;17.50;70.80;;;;;;5116356;27;20039;-84
2023/05/29 09:48:18;;;;;;;14.68;5.18;;;17.70;69.70;;;;;;5112195;27;20122;-84
2023/05/29 09:50:47;;;;;;;16.20;4.80;;;17.70;69.30;;;;;;5114883;27;20035;-84
2023/05/29 09:53:23;;;;;;;17.30;4.72;;;17.60;68.90;;;;;;5105082;27;20035;-84
2023/05/29 09:55:50;;;;;;;15.90;4.35;;;17.70;69.30;;;;;;5103191;27;20176;-84
2023/05/29 09:58:18;;;;;;;17.92;5.00;;;17.70;69.20;;;;;;5109641;27;20031;-84
2023/05/29 10:00:44;;;;;;;19.23;4.82;;;17.80;69.30;;;;;;5109740;27;20115;-84
2023/05/29 10:03:14;;;;;;;18.42;4.97;;;17.90;69.40;;;;;;5110172;27;20080;-84
2023/05/29 10:05:40;;;;;;;16.20;5.07;;;18.00;69.10;;;;;;5110349;27;20050;-85
2023/05/29 10:08:14;;;;;;;16.13;4.55;;;18.20;69.00;;;;;;5123416;27;20082;-84
2023/05/29 10:10:43;;;;;;;15.73;4.40;;;18.30;69.00;;;;;;5098578;28;20549;-84
2023/05/29 10:13:11;;;;;;;17.02;4.72;;;18.40;68.70;;;;;;5095696;28;20094;-84
2023/05/29 10:15:39;;;;;;;16.02;4.93;;;18.50;69.00;;;;;;5095411;28;20078;-84
2023/05/29 10:18:19;;;;;;;18.08;4.82;;;18.60;69.20;;;;;;5095267;28;20043;-85
2023/05/29 10:20:51;;;;;;;13.40;3.90;;;18.70;67.80;;;;;;5113412;28;20047;-84
2023/05/29 10:23:19;;;;;;;17.02;4.57;;;18.70;67.50;;;;;;5095350;28;20039;-84
2023/05/29 10:25:49;;;;;;;18.35;4.90;;;18.70;67.00;;;;;;5095237;28;20047;-84
2023/05/29 10:28:15;;;;;;;15.40;4.30;;;18.80;67.40;;;;;;5095401;28;20047;-85
2023/05/29 10:30:54;;;;;;;13.98;3.72;;;18.80;67.10;;;;;;5094016;28;20047;-84
2023/05/29 10:33:47;;;;;;;15.35;4.47;;;18.90;66.70;;;;;;5095144;28;20040;-85
2023/05/29 10:36:21;;;;;;;18.10;4.88;;;19.00;66.70;;;;;;5095353;28;20097;-85
2023/05/29 10:38:48;;;;;;;16.33;4.68;;;18.90;66.60;;;;;;5094937;28;20125;-85
2023/05/29 10:41:26;;;;;;;17.88;4.07;;;19.10;66.40;;;;;;5100328;27;20454;-85
2023/05/29 10:44:02;;;;;;;17.40;4.43;;;19.10;65.80;;;;;;5103875;27;20193;-85
2023/05/29 10:46:47;;;;;;;18.95;4.80;;;19.20;66.00;;;;;;5103867;27;20038;-84
2023/05/29 10:49:20;;;;;;;16.52;4.10;;;19.40;66.20;;;;;;5104927;27;20050;-85
2023/05/29 10:51:48;;;;;;;15.30;4.35;;;19.40;66.00;;;;;;5122956;27;20092;-85
2023/05/29 10:54:14;;;;;;;17.10;4.28;;;19.50;65.70;;;;;;5086490;27;20078;-85
2023/05/29 10:56:41;;;;;;;15.93;4.68;;;19.50;64.30;;;;;;5105110;27;20042;-84
2023/05/29 10:59:08;;;;;;;21.67;5.13;;;19.40;64.20;;;;;;5094916;28;20066;-85
2023/05/29 11:01:37;;;;;;;18.17;4.70;;;19.50;64.00;;;;;;5094210;28;20122;-85
2023/05/29 11:04:15;;;;;;;15.07;4.40;;;19.50;63.70;;;;;;5108010;27;20051;-85
2023/05/29 11:06:41;;;;;;;16.67;4.60;;;19.50;64.60;;;;;;5114945;27;20095;-85
2023/05/29 11:09:26;;;;;;;15.25;4.72;;;19.50;64.90;;;;;;5114787;27;20484;-85
2023/05/29 11:12:11;;;;;;;15.52;4.13;;;19.60;64.50;;;;;;5114837;27;20512;-84
2023/05/29 11:15:02;;;;;;;17.67;4.35;;;19.60;65.00;;;;;;5115036;27;20043;-84
2023/05/29 11:17:39;;;;;;;14.60;4.03;;;19.70;64.30;;;;;;5114542;27;20039;-85
2023/05/29 11:20:09;;;;;;;16.55;4.97;;;19.80;63.70;;;;;;5114341;27;20089;-85
2023/05/29 11:23:07;;;;;;;18.23;4.45;;;19.90;63.20;;;;;;5114667;27;20096;-85
2023/05/29 11:25:34;;;;;;;15.15;3.97;;;20.00;63.40;;;;;;5114589;27;20469;-85
2023/05/29 11:28:00;;;;;;;14.82;4.90;;;20.00;63.20;;;;;;5114410;27;20053;-85
2023/05/29 11:30:26;;;;;;;19.73;5.50;;;20.10;63.10;;;;;;5113960;27;20050;-85
2023/05/29 11:32:53;;;;;;;15.38;4.90;;;20.20;63.50;;;;;;5114548;27;20350;-85
2023/05/29 11:35:22;;;;;;;15.32;4.45;;;20.30;63.40;;;;;;5114446;28;20079;-85
2023/05/29 11:37:48;;;;;;;15.30;3.78;;;20.40;62.60;;;;;;5120425;27;20076;-85
2023/05/29 11:40:15;;;;;;;12.70;3.55;;;20.40;60.60;;;;;;5103366;28;20100;-85
2023/05/29 11:42:46;;;;;;;17.38;5.00;;;20.40;60.50;;;;;;5102034;28;20047;-85
2023/05/29 11:45:21;;;;;;;15.77;4.20;;;20.30;60.70;;;;;;5101382;27;20114;-85
2023/05/29 11:47:59;;;;;;;19.00;4.47;;;20.30;60.40;;;;;;5104795;27;20526;-85
2023/05/29 11:50:27;;;;;;;16.05;4.18;;;20.30;60.60;;;;;;5104259;28;20042;-85
2023/05/29 11:52:53;;;;;;;15.02;4.07;;;20.50;61.40;;;;;;5091407;28;20048;-85
2023/05/29 11:55:20;;;;;;;14.00;4.20;;;20.60;61.50;;;;;;5083876;28;20119;-85
2023/05/29 11:58:06;;;;;;;12.40;3.90;;;20.70;61.50;;;;;;5083410;28;20086;-85
2023/05/29 12:00:37;;;;;;;15.32;3.88;;;20.80;60.90;;;;;;5080693;28;20517;-85
2023/05/29 12:03:04;;;;;;;13.82;4.72;;;20.80;61.10;;;;;;5080224;28;20071;-84
2023/05/29 12:05:46;;;;;;;15.00;4.82;;;20.80;60.50;;;;;;5082326;28;20130;-84
2023/05/29 12:08:12;;;;;;;;;;;20.90;60.80;;;;;;5097025;28;20050;-84
2023/05/29 12:10:47;;;;;;;15.25;3.83;;;21.00;61.50;;;;;;5104045;28;19919;-84
2023/05/29 12:13:16;;;;;;;18.85;4.80;;;21.10;60.50;;;;;;5110021;28;20127;-84
2023/05/29 12:15:43;;;;;;;15.23;4.03;;;21.20;60.00;;;;;;5114073;28;20507;-84
2023/05/29 12:18:08;;;;;;;12.27;3.60;;;21.30;59.50;;;;;;5113876;28;20070;-84
2023/05/29 12:20:34;;;;;;;15.52;3.83;;;21.40;58.20;;;;;;5113718;28;20086;-84
2023/05/29 12:23:01;;;;;;;15.57;4.00;;;21.40;57.20;;;;;;5114051;28;20071;-84
2023/05/29 12:25:28;;;;;;;12.90;3.70;;;21.30;57.80;;;;;;5114117;28;20039;-84
2023/05/29 12:27:56;;;;;;;16.42;4.70;;;21.30;57.90;;;;;;5114005;28;20051;-84
2023/05/29 12:30:22;;;;;;;14.68;3.85;;;21.30;57.40;;;;;;5113031;28;20061;-84
2023/05/29 12:32:51;;;;;;;13.75;3.85;;;21.20;56.80;;;;;;5114218;28;20101;-84
2023/05/29 12:35:20;;;;;;;14.98;3.97;;;21.20;58.10;;;;;;5132038;28;20140;-84
2023/05/29 12:37:57;;;;;;;15.20;4.25;;;21.30;57.40;;;;;;5113925;28;20404;-84
2023/05/29 12:40:27;;;;;;;14.95;4.15;;;21.30;57.40;;;;;;5113740;28;20498;-84